createdAt,value
2022-09-12T00:00:23.120Z,96575.16
2022-09-12T00:02:55.939Z,96562.56
2022-09-12T00:05:22.432Z,96574.59
2022-09-12T00:07:49.435Z,96568.38
2022-09-12T00:10:16.683Z,96568.19
2022-09-12T00:12:43.248Z,96570.56
2022-09-12T00:15:10.789Z,96568.97
2022-09-12T00:17:38.678Z,96578.09
2022-09-12T00:20:08.025Z,96573.91
2022-09-12T00:22:35.173Z,96574.44
2022-09-12T00:25:02.229Z,96584.88
2022-09-12T00:27:28.781Z,96579.78
2022-09-12T00:29:55.278Z,96583.56
2022-09-12T00:32:24.288Z,96583.69
2022-09-12T00:34:50.665Z,96588.34
2022-09-12T00:37:17.069Z,96586.31
2022-09-12T00:39:43.583Z,96587.63
2022-09-12T00:42:11.862Z,96590.19
2022-09-12T00:44:38.155Z,96583.56
2022-09-12T00:47:11.518Z,96588.91
2022-09-12T00:49:47.426Z,96586.47
2022-09-12T00:52:18.754Z,96586.09
2022-09-12T00:54:51.472Z,96579.88
2022-09-12T00:57:20.493Z,96583.22
2022-09-12T00:59:54.042Z,96584.38
2022-09-12T01:02:21.653Z,96586.19
2022-09-12T01:04:48.971Z,96593.44
2022-09-12T01:07:15.858Z,96599.31
2022-09-12T01:09:44.117Z,96601.44
2022-09-12T01:12:11.556Z,96589.88
2022-09-12T01:14:38.822Z,96592.41
2022-09-12T01:17:05.294Z,96593.88
2022-09-12T01:20:05.328Z,96598.38
2022-09-12T01:22:34.614Z,96594.88
2022-09-12T01:25:09.749Z,96598.50
2022-09-12T01:27:36.088Z,96600.66
2022-09-12T01:30:30.032Z,96608.09
2022-09-12T01:33:21.256Z,96602.75
2022-09-12T01:36:05.948Z,96603.44
2022-09-12T01:38:52.543Z,96594.66
2022-09-12T01:41:25.069Z,96597.34
2022-09-12T01:44:22.762Z,96591.34
2022-09-12T01:47:02.461Z,96585.81
2022-09-12T01:49:57.868Z,96590.56
2022-09-12T01:52:37.698Z,96581.94
2022-09-12T01:55:28.195Z,96572.00
2022-09-12T01:58:03.051Z,96579.72
2022-09-12T02:00:32.159Z,96589.41
2022-09-12T02:03:10.495Z,96587.63
2022-09-12T02:05:42.917Z,96585.94
2022-09-12T02:08:18.844Z,96587.00
2022-09-12T02:10:50.840Z,96588.22
2022-09-12T02:13:25.642Z,96583.06
2022-09-12T02:15:58.855Z,96588.94
2022-09-12T02:18:27.046Z,96584.84
2022-09-12T02:20:56.344Z,96591.81
2022-09-12T02:23:31.245Z,96591.34
2022-09-12T02:26:12.520Z,96585.19
2022-09-12T02:28:42.279Z,96591.97
2022-09-12T02:31:29.447Z,96585.50
2022-09-12T02:34:13.820Z,96588.94
2022-09-12T02:36:55.594Z,96585.69
2022-09-12T02:39:22.202Z,96584.00
2022-09-12T02:41:52.279Z,96582.06
2022-09-12T02:44:19.513Z,96582.72
2022-09-12T02:46:54.158Z,96587.59
2022-09-12T02:49:20.764Z,96578.16
2022-09-12T02:51:47.829Z,96578.00
2022-09-12T02:54:17.112Z,96575.72
2022-09-12T02:56:45.030Z,96577.91
2022-09-12T02:59:18.205Z,96574.59
2022-09-12T03:01:44.644Z,96575.88
2022-09-12T03:04:26.024Z,96577.16
2022-09-12T03:07:12.693Z,96582.38
2022-09-12T03:09:54.923Z,96564.50
2022-09-12T03:12:30.284Z,96566.59
2022-09-12T03:15:01.506Z,96556.13
2022-09-12T03:17:46.759Z,96567.34
2022-09-12T03:20:27.249Z,96559.28
2022-09-12T03:22:58.393Z,96558.00
2022-09-12T03:25:32.431Z,96554.75
2022-09-12T03:28:06.136Z,96562.44
2022-09-12T03:30:39.156Z,96559.47
2022-09-12T03:33:05.628Z,96561.16
2022-09-12T03:35:32.019Z,96563.44
2022-09-12T03:37:58.396Z,96566.22
2022-09-12T03:40:24.783Z,96568.78
2022-09-12T03:42:51.257Z,96569.72
2022-09-12T03:45:17.738Z,96572.03
2022-09-12T03:47:44.119Z,96570.25
2022-09-12T03:50:10.943Z,96570.25
2022-09-12T03:52:37.509Z,96581.63
2022-09-12T03:55:04.258Z,96566.81
2022-09-12T03:57:30.664Z,96570.38
2022-09-12T03:59:57.152Z,96571.34
2022-09-12T04:02:23.648Z,96568.88
2022-09-12T04:04:50.182Z,96573.22
2022-09-12T04:07:17.238Z,96569.78
2022-09-12T04:09:44.103Z,96569.97
2022-09-12T04:12:10.719Z,96565.81
2022-09-12T04:14:37.172Z,96565.03
2022-09-12T04:17:03.700Z,96569.19
2022-09-12T04:19:30.342Z,96570.75
2022-09-12T04:21:56.808Z,96567.81
2022-09-12T04:24:23.216Z,96565.53
2022-09-12T04:26:49.619Z,96564.34
2022-09-12T04:29:16.215Z,96559.31
2022-09-12T04:31:43.403Z,96562.19
2022-09-12T04:34:09.971Z,96564.66
2022-09-12T04:36:36.453Z,96570.84
2022-09-12T04:39:05.323Z,96565.16
2022-09-12T04:41:34.936Z,96568.38
2022-09-12T04:44:04.667Z,96568.00
2022-09-12T04:46:35.726Z,96572.34
2022-09-12T04:49:03.109Z,96570.16
2022-09-12T04:51:33.674Z,96573.63
2022-09-12T04:54:20.108Z,96570.97
2022-09-12T04:56:49.283Z,96568.09
2022-09-12T04:59:18.300Z,96572.56
2022-09-12T05:01:44.994Z,96567.63
2022-09-12T05:04:13.305Z,96570.59
2022-09-12T05:06:41.423Z,96572.56
2022-09-12T05:09:11.213Z,96582.88
2022-09-12T05:12:03.092Z,96583.97
2022-09-12T05:14:26.311Z,96578.47
2022-09-12T05:16:52.746Z,96587.34
2022-09-12T05:19:19.286Z,96591.66
2022-09-12T05:21:46.011Z,96587.34
2022-09-12T05:24:12.594Z,96594.25
2022-09-12T05:26:39.177Z,96588.94
2022-09-12T05:29:07.162Z,96588.44
2022-09-12T05:31:34.595Z,96595.00
2022-09-12T05:34:01.197Z,96595.00
2022-09-12T05:36:29.756Z,96599.47
2022-09-12T05:38:57.082Z,96597.59
2022-09-12T05:41:26.154Z,96599.56
2022-09-12T05:43:57.798Z,96604.00
2022-09-12T05:46:26.810Z,96611.09
2022-09-12T05:48:56.318Z,96610.78
2022-09-12T05:51:28.114Z,96609.72
2022-09-12T05:53:57.333Z,96622.63
2022-09-12T05:56:26.347Z,96618.88
2022-09-12T05:58:55.945Z,96617.81
2022-09-12T06:01:22.684Z,96609.22
2022-09-12T06:03:51.969Z,96611.78
2022-09-12T06:06:22.704Z,96613.97
2022-09-12T06:08:51.887Z,96615.34
2022-09-12T06:11:21.030Z,96612.19
2022-09-12T06:13:48.058Z,96615.13
2022-09-12T06:16:17.882Z,96613.56
2022-09-12T06:18:49.460Z,96614.75
2022-09-12T06:21:16.218Z,96610.59
2022-09-12T06:23:42.974Z,96612.47
2022-09-12T06:26:10.749Z,96610.59
2022-09-12T06:28:39.750Z,96609.69
2022-09-12T06:31:11.946Z,96604.19
2022-09-12T06:33:41.616Z,96602.44
2022-09-12T06:36:12.534Z,96598.06
2022-09-12T06:38:40.313Z,96601.88
2022-09-12T06:41:09.244Z,96585.84
2022-09-12T06:43:35.986Z,96592.09
2022-09-12T06:46:02.508Z,96585.34
2022-09-12T06:48:29.413Z,96590.91
2022-09-12T06:51:00.940Z,96580.75
2022-09-12T06:53:28.728Z,96582.94
2022-09-12T06:56:16.210Z,96587.31
2022-09-12T06:58:43.884Z,96587.69
2022-09-12T07:01:13.159Z,96582.75
2022-09-12T07:03:39.993Z,96587.41
2022-09-12T07:06:09.135Z,96583.13
2022-09-12T07:08:37.276Z,96579.34
2022-09-12T07:11:16.996Z,96588.22
2022-09-12T07:13:45.698Z,96590.63
2022-09-12T07:16:18.661Z,96589.66
2022-09-12T07:18:50.730Z,96593.44
2022-09-12T07:21:17.122Z,96591.38
2022-09-12T07:23:43.900Z,96581.06
2022-09-12T07:26:12.767Z,96582.69
2022-09-12T07:28:40.065Z,96577.31
2022-09-12T07:31:12.949Z,96575.03
2022-09-12T07:33:40.350Z,96571.56
2022-09-12T07:36:11.825Z,96578.84
2022-09-12T07:38:39.205Z,96572.94
2022-09-12T07:41:15.397Z,96575.22
2022-09-12T07:43:41.977Z,96578.22
2022-09-12T07:46:09.439Z,96576.22
2022-09-12T07:48:36.582Z,96572.97
2022-09-12T07:51:06.525Z,96571.84
2022-09-12T07:53:36.073Z,96573.16
2022-09-12T07:56:03.543Z,96578.94
2022-09-12T07:58:30.892Z,96583.41
2022-09-12T08:01:13.067Z,96579.78
2022-09-12T08:03:43.846Z,96583.69
2022-09-12T08:06:15.660Z,96578.03
2022-09-12T08:08:43.180Z,96581.81
2022-09-12T08:11:12.392Z,96579.28
2022-09-12T08:13:40.313Z,96580.72
2022-09-12T08:16:11.891Z,96582.28
2022-09-12T08:18:39.272Z,96580.41
2022-09-12T08:21:10.238Z,96581.03
2022-09-12T08:23:36.639Z,96583.88
2022-09-12T08:26:06.273Z,96587.78
2022-09-12T08:28:35.058Z,96581.91
2022-09-12T08:31:06.570Z,96583.47
2022-09-12T08:33:33.636Z,96579.56
2022-09-12T08:36:08.677Z,96575.13
2022-09-12T08:38:36.034Z,96578.13
2022-09-12T08:41:30.334Z,96578.59
2022-09-12T08:44:34.835Z,96574.00
2022-09-12T08:47:21.998Z,96580.16
2022-09-12T08:50:10.367Z,96591.34
2022-09-12T08:53:03.240Z,96587.31
2022-09-12T08:55:31.513Z,96593.22
2022-09-12T08:58:02.865Z,96601.31
2022-09-12T09:00:38.935Z,96600.72
2022-09-12T09:03:12.393Z,96596.75
2022-09-12T09:06:01.235Z,96594.72
2022-09-12T09:08:45.927Z,96596.75
2022-09-12T09:11:34.349Z,96601.63
2022-09-12T09:14:50.254Z,96601.44
2022-09-12T09:17:39.961Z,96607.75
2022-09-12T09:20:23.279Z,96602.81
2022-09-12T09:22:53.585Z,96599.50
2022-09-12T09:25:26.218Z,96604.13
2022-09-12T09:28:02.167Z,96599.38
2022-09-12T09:30:29.001Z,96605.78
2022-09-12T09:33:00.035Z,96602.69
2022-09-12T09:35:42.387Z,96595.16
2022-09-12T09:38:29.920Z,96591.22
2022-09-12T09:41:14.629Z,96592.38
2022-09-12T09:43:41.184Z,96592.13
2022-09-12T09:46:07.975Z,96590.69
2022-09-12T09:48:42.387Z,96589.16
2022-09-12T09:51:09.361Z,96583.28
2022-09-12T09:53:46.187Z,96577.63
2022-09-12T09:56:26.764Z,96581.16
2022-09-12T09:58:53.539Z,96580.25
2022-09-12T10:01:21.109Z,96573.06
2022-09-12T10:03:52.748Z,96567.59
2022-09-12T10:06:32.122Z,96574.63
2022-09-12T10:09:19.267Z,96563.31
2022-09-12T10:11:47.427Z,96561.53
2022-09-12T10:14:34.933Z,96571.63
2022-09-12T10:17:22.339Z,96561.53
2022-09-12T10:20:04.559Z,96561.19
2022-09-12T10:22:35.289Z,96556.31
2022-09-12T10:25:02.066Z,96553.25
2022-09-12T10:27:32.253Z,96549.22
2022-09-12T10:30:18.661Z,96552.84
2022-09-12T10:32:50.563Z,96552.84
2022-09-12T10:35:22.941Z,96549.03
2022-09-12T10:37:54.989Z,96548.69
2022-09-12T10:40:25.139Z,96541.63
2022-09-12T10:42:55.033Z,96545.22
2022-09-12T10:45:35.435Z,96536.25
2022-09-12T10:48:21.855Z,96530.22
2022-09-12T10:50:48.299Z,96534.44
2022-09-12T10:53:24.559Z,96527.44
2022-09-12T10:56:15.832Z,96534.59
2022-09-12T10:59:02.655Z,96529.78
2022-09-12T11:01:31.862Z,96527.97
2022-09-12T11:04:22.867Z,96532.91
2022-09-12T11:07:14.782Z,96528.16
2022-09-12T11:10:02.514Z,96533.56
2022-09-12T11:12:28.978Z,96535.69
2022-09-12T11:15:32.991Z,96530.53
2022-09-12T11:18:23.408Z,96528.06
2022-09-12T11:21:09.721Z,96523.28
2022-09-12T11:23:46.671Z,96522.38
2022-09-12T11:26:19.199Z,96527.69
2022-09-12T11:28:52.838Z,96530.84
2022-09-12T11:31:37.370Z,96519.44
2022-09-12T11:34:09.501Z,96514.44
2022-09-12T11:36:54.402Z,96520.88
2022-09-12T11:39:30.684Z,96523.75
2022-09-12T11:42:02.597Z,96523.91
2022-09-12T11:44:40.131Z,96523.28
2022-09-12T11:47:14.443Z,96513.97
2022-09-12T11:49:47.259Z,96513.88
2022-09-12T11:52:16.940Z,96513.06
2022-09-12T11:54:53.696Z,96514.75
2022-09-12T11:57:20.583Z,96512.59
2022-09-12T11:59:59.016Z,96515.78
2022-09-12T12:02:39.086Z,96507.69
2022-09-12T12:05:15.416Z,96503.59
2022-09-12T12:07:48.667Z,96499.69
2022-09-12T12:10:30.016Z,96503.25
2022-09-12T12:12:58.029Z,96496.81
2022-09-12T12:15:26.586Z,96489.66
2022-09-12T12:18:08.376Z,96488.75
2022-09-12T12:20:35.761Z,96479.75
2022-09-12T12:23:02.328Z,96479.13
2022-09-12T12:25:52.777Z,96482.94
2022-09-12T12:28:41.047Z,96484.34
2022-09-12T12:31:11.332Z,96487.91
2022-09-12T12:33:37.744Z,96474.81
2022-09-12T12:36:08.130Z,96471.88
2022-09-12T12:38:36.425Z,96464.63
2022-09-12T12:41:18.190Z,96471.16
2022-09-12T12:43:45.739Z,96460.66
2022-09-12T12:46:15.896Z,96458.31
2022-09-12T12:49:04.187Z,96461.47
2022-09-12T12:51:35.656Z,96457.81
2022-09-12T12:54:08.703Z,96453.22
2022-09-12T12:56:41.979Z,96458.44
2022-09-12T12:59:23.557Z,96454.00
2022-09-12T13:01:55.445Z,96451.56
2022-09-12T13:04:25.663Z,96454.34
2022-09-12T13:07:07.660Z,96444.84
2022-09-12T13:09:39.654Z,96439.56
2022-09-12T13:12:17.627Z,96436.25
2022-09-12T13:14:46.887Z,96431.63
2022-09-12T13:17:37.482Z,96424.53
2022-09-12T13:20:26.619Z,96424.09
2022-09-12T13:22:54.182Z,96436.19
2022-09-12T13:25:25.508Z,96426.44
2022-09-12T13:28:15.772Z,96423.41
2022-09-12T13:31:06.874Z,96421.44
2022-09-12T13:33:39.234Z,96422.63
2022-09-12T13:36:12.620Z,96414.91
2022-09-12T13:38:51.047Z,96410.13
2022-09-12T13:41:32.881Z,96410.38
2022-09-12T13:44:00.718Z,96398.63
2022-09-12T13:46:31.189Z,96407.88
2022-09-12T13:48:59.785Z,96403.59
2022-09-12T13:51:28.932Z,96397.63
2022-09-12T13:54:00.125Z,96393.34
2022-09-12T13:56:26.960Z,96392.31
2022-09-12T13:58:57.446Z,96395.97
2022-09-12T14:01:36.532Z,96393.53
2022-09-12T14:04:34.099Z,96389.97
2022-09-12T14:07:04.081Z,96383.44
2022-09-12T14:09:39.490Z,96379.91
2022-09-12T14:12:18.209Z,96386.13
2022-09-12T14:14:49.939Z,96377.22
2022-09-12T14:17:38.725Z,96370.94
2022-09-12T14:20:14.029Z,96371.13
2022-09-12T14:22:41.523Z,96369.22
2022-09-12T14:25:16.078Z,96377.09
2022-09-12T14:27:50.708Z,96368.88
2022-09-12T14:30:23.003Z,96375.56
2022-09-12T14:33:11.396Z,96379.13
2022-09-12T14:35:43.798Z,96373.63
2022-09-12T14:38:16.081Z,96368.63
2022-09-12T14:40:46.255Z,96368.09
2022-09-12T14:43:25.077Z,96364.06
2022-09-12T14:45:59.635Z,96360.16
2022-09-12T14:48:30.264Z,96354.44
2022-09-12T14:50:56.747Z,96347.78
2022-09-12T14:53:30.796Z,96349.94
2022-09-12T14:56:05.402Z,96344.22
2022-09-12T14:58:31.943Z,96347.16
2022-09-12T15:01:03.738Z,96341.78
2022-09-12T15:03:38.036Z,96338.81
2022-09-12T15:06:07.911Z,96338.66
2022-09-12T15:08:34.416Z,96343.31
2022-09-12T15:11:00.963Z,96341.94
2022-09-12T15:13:30.200Z,96336.47
2022-09-12T15:15:58.987Z,96336.84
2022-09-12T15:18:28.691Z,96331.28
2022-09-12T15:20:57.741Z,96337.09
2022-09-12T15:23:49.972Z,96333.13
2022-09-12T15:26:22.534Z,96332.16
2022-09-12T15:28:50.192Z,96330.56
2022-09-12T15:31:26.259Z,96330.94
2022-09-12T15:33:53.924Z,96329.63
2022-09-12T15:36:22.830Z,96332.22
2022-09-12T15:38:50.162Z,96333.69
2022-09-12T15:41:19.523Z,96333.50
2022-09-12T15:43:47.481Z,96337.94
2022-09-12T15:46:15.924Z,96331.97
2022-09-12T15:48:43.408Z,96329.88
2022-09-12T15:51:20.869Z,96329.47
2022-09-12T15:53:49.168Z,96330.69
2022-09-12T15:56:17.728Z,96337.53
2022-09-12T15:58:57.636Z,96333.88
2022-09-12T16:01:25.913Z,96331.34
2022-09-12T16:03:52.442Z,96326.34
2022-09-12T16:06:18.825Z,96329.94
2022-09-12T16:08:45.437Z,96331.06
2022-09-12T16:11:32.977Z,96325.91
2022-09-12T16:14:00.009Z,96330.97
2022-09-12T16:16:26.560Z,96335.38
2022-09-12T16:18:53.065Z,96331.13
2022-09-12T16:21:19.590Z,96330.84
2022-09-12T16:23:47.320Z,96326.31
2022-09-12T16:26:14.165Z,96329.94
2022-09-12T16:28:40.945Z,96323.91
2022-09-12T16:31:10.198Z,96331.69
2022-09-12T16:33:38.049Z,96322.03
2022-09-12T16:36:07.727Z,96324.31
2022-09-12T16:38:35.802Z,96321.88
2022-09-12T16:41:05.194Z,96320.84
2022-09-12T16:43:33.043Z,96319.19
2022-09-12T16:46:09.623Z,96314.50
2022-09-12T16:48:36.385Z,96321.31
2022-09-12T16:51:06.840Z,96312.81
2022-09-12T16:53:35.473Z,96316.88
2022-09-12T16:56:02.135Z,96323.94
2022-09-12T16:58:32.742Z,96317.56
2022-09-12T17:01:00.874Z,96323.63
2022-09-12T17:03:27.663Z,96328.88
2022-09-12T17:06:01.836Z,96320.25
2022-09-12T17:08:29.058Z,96326.63
2022-09-12T17:11:02.645Z,96330.31
2022-09-12T17:13:46.908Z,96326.31
2022-09-12T17:16:17.148Z,96320.03
2022-09-12T17:18:43.735Z,96334.81
2022-09-12T17:21:11.891Z,96331.25
2022-09-12T17:23:39.500Z,96331.47
2022-09-12T17:26:07.446Z,96329.75
2022-09-12T17:28:34.162Z,96334.78
2022-09-12T17:31:03.520Z,96334.34
2022-09-12T17:33:30.611Z,96329.63
2022-09-12T17:36:04.882Z,96335.00
2022-09-12T17:38:32.419Z,96338.34
2022-09-12T17:41:08.393Z,96344.16
2022-09-12T17:43:40.873Z,96343.03
2022-09-12T17:46:08.208Z,96336.78
2022-09-12T17:48:35.847Z,96333.19
2022-09-12T17:51:14.268Z,96344.59
2022-09-12T17:53:41.797Z,96351.75
2022-09-12T17:56:09.352Z,96352.97
2022-09-12T17:58:36.759Z,96350.06
2022-09-12T18:01:29.394Z,96362.34
2022-09-12T18:03:57.530Z,96369.84
2022-09-12T18:06:24.342Z,96370.81
2022-09-12T18:08:51.488Z,96369.94
2022-09-12T18:11:18.069Z,96370.94
2022-09-12T18:13:44.635Z,96375.72
2022-09-12T18:16:12.650Z,96368.66
2022-09-12T18:18:39.310Z,96371.81
2022-09-12T18:21:06.899Z,96383.81
2022-09-12T18:23:33.963Z,96380.25
2022-09-12T18:26:05.639Z,96381.91
2022-09-12T18:28:33.177Z,96387.78
2022-09-12T18:30:59.714Z,96389.56
2022-09-12T18:33:26.190Z,96392.66
2022-09-12T18:35:52.597Z,96390.91
2022-09-12T18:38:19.096Z,96407.66
2022-09-12T18:40:45.587Z,96401.94
2022-09-12T18:43:12.002Z,96398.00
2022-09-12T18:45:38.383Z,96399.56
2022-09-12T18:48:06.072Z,96402.41
2022-09-12T18:50:33.075Z,96398.59
2022-09-12T18:53:00.020Z,96399.41
2022-09-12T18:55:26.663Z,96403.06
2022-09-12T18:57:54.847Z,96408.13
2022-09-12T19:00:21.493Z,96406.91
2022-09-12T19:02:48.000Z,96420.16
2022-09-12T19:05:14.535Z,96426.31
2022-09-12T19:07:41.168Z,96427.75
2022-09-12T19:10:08.837Z,96424.47
2022-09-12T19:12:35.428Z,96425.91
2022-09-12T19:15:01.976Z,96438.81
2022-09-12T19:17:28.434Z,96442.63
2022-09-12T19:19:55.418Z,96439.59
2022-09-12T19:22:22.187Z,96445.75
2022-09-12T19:24:48.615Z,96446.16
2022-09-12T19:27:16.034Z,96444.91
2022-09-12T19:29:42.627Z,96445.84
2022-09-12T19:32:09.082Z,96447.22
2022-09-12T19:34:35.548Z,96445.22
2022-09-12T19:37:01.945Z,96443.19
2022-09-12T19:39:28.380Z,96440.03
2022-09-12T19:41:54.757Z,96446.50
2022-09-12T19:44:21.250Z,96449.38
2022-09-12T19:46:47.963Z,96445.88
2022-09-12T19:49:14.471Z,96446.94
2022-09-12T19:51:41.309Z,96451.41
2022-09-12T19:54:08.051Z,96451.88
2022-09-12T19:56:34.629Z,96460.97
2022-09-12T19:59:01.022Z,96457.22
2022-09-12T20:01:28.614Z,96461.16
2022-09-12T20:03:58.754Z,96458.53
2022-09-12T20:06:26.205Z,96465.13
2022-09-12T20:08:52.820Z,96458.19
2022-09-12T20:11:20.889Z,96468.72
2022-09-12T20:13:47.528Z,96470.84
2022-09-12T20:16:25.437Z,96472.56
2022-09-12T20:18:54.441Z,96471.38
2022-09-12T20:21:25.370Z,96473.41
2022-09-12T20:23:52.069Z,96466.78
2022-09-12T20:26:20.086Z,96472.75
2022-09-12T20:28:46.500Z,96472.16
2022-09-12T20:31:15.360Z,96472.75
2022-09-12T20:33:42.157Z,96476.84
2022-09-12T20:36:14.438Z,96478.75
2022-09-12T20:38:42.275Z,96478.13
2022-09-12T20:41:09.965Z,96481.47
2022-09-12T20:43:38.539Z,96486.16
2022-09-12T20:46:07.017Z,96483.34
2022-09-12T20:48:33.425Z,96490.09
2022-09-12T20:50:59.825Z,96493.56
2022-09-12T20:53:28.785Z,96494.81
2022-09-12T20:55:57.035Z,96486.16
2022-09-12T20:58:23.521Z,96487.09
2022-09-12T21:00:50.507Z,96488.38
2022-09-12T21:03:17.445Z,96482.41
2022-09-12T21:05:45.007Z,96478.31
2022-09-12T21:08:12.247Z,96480.03
2022-09-12T21:10:42.160Z,96469.34
2022-09-12T21:13:13.438Z,96475.31
2022-09-12T21:15:41.296Z,96471.88
2022-09-12T21:18:08.100Z,96476.78
2022-09-12T21:20:34.692Z,96470.63
2022-09-12T21:23:01.200Z,96475.66
2022-09-12T21:25:29.016Z,96477.22
2022-09-12T21:27:55.642Z,96475.97
2022-09-12T21:30:22.347Z,96465.59
2022-09-12T21:32:48.839Z,96467.94
2022-09-12T21:35:15.406Z,96466.53
2022-09-12T21:37:41.834Z,96470.63
2022-09-12T21:40:08.598Z,96471.09
2022-09-12T21:42:35.059Z,96459.94
2022-09-12T21:45:01.698Z,96473.28
2022-09-12T21:47:28.109Z,96472.97
2022-09-12T21:49:55.287Z,96472.34
2022-09-12T21:52:22.041Z,96472.00
2022-09-12T21:54:48.467Z,96474.88
2022-09-12T21:57:15.603Z,96472.19
2022-09-12T21:59:42.115Z,96469.84
2022-09-12T22:02:09.460Z,96471.91
2022-09-12T22:04:35.874Z,96466.25
2022-09-12T22:07:02.369Z,96468.91
2022-09-12T22:09:28.798Z,96471.41
2022-09-12T22:11:55.596Z,96479.63
2022-09-12T22:14:22.062Z,96467.31
2022-09-12T22:16:49.428Z,96460.09
2022-09-12T22:19:16.278Z,96464.50
2022-09-12T22:22:02.720Z,96471.09
2022-09-12T22:24:29.685Z,96473.47
2022-09-12T22:26:58.951Z,96467.81
2022-09-12T22:29:26.375Z,96468.13
2022-09-12T22:31:53.571Z,96462.81
2022-09-12T22:34:20.088Z,96465.75
2022-09-12T22:36:48.319Z,96471.91
2022-09-12T22:39:14.747Z,96469.84
2022-09-12T22:41:41.170Z,96457.75
2022-09-12T22:44:07.599Z,96457.91
2022-09-12T22:46:34.015Z,96463.25
2022-09-12T22:49:00.439Z,96465.00
2022-09-12T22:51:26.928Z,96464.81
2022-09-12T22:53:53.796Z,96471.75
2022-09-12T22:56:20.253Z,96480.41
2022-09-12T22:58:46.718Z,96474.44
2022-09-12T23:01:13.249Z,96485.28
2022-09-12T23:03:40.139Z,96487.63
2022-09-12T23:06:07.757Z,96490.63
2022-09-12T23:08:36.347Z,96490.63
2022-09-12T23:11:06.053Z,96488.13
2022-09-12T23:13:33.052Z,96494.41
2022-09-12T23:16:01.011Z,96494.53
2022-09-12T23:18:28.133Z,96496.28
2022-09-12T23:21:05.919Z,96488.56
2022-09-12T23:23:32.971Z,96489.22
2022-09-12T23:26:10.838Z,96492.50
2022-09-12T23:28:37.609Z,96492.81
2022-09-12T23:31:04.462Z,96489.69
2022-09-12T23:33:32.318Z,96486.06
2022-09-12T23:36:12.606Z,96482.59
2022-09-12T23:38:39.072Z,96473.81
2022-09-12T23:41:05.697Z,96477.25
2022-09-12T23:43:32.190Z,96477.88
2022-09-12T23:45:58.996Z,96476.16
2022-09-12T23:48:26.338Z,96481.19
2022-09-12T23:50:52.966Z,96473.19
2022-09-12T23:53:19.958Z,96481.97
2022-09-12T23:55:47.155Z,96477.56
2022-09-12T23:58:14.056Z,96463.41
